createdAt,value
2019-02-24T00:00:30.969Z,103478.27
2019-02-24T00:03:03.138Z,103470.03
2019-02-24T00:05:34.191Z,103463.79
2019-02-24T00:08:04.869Z,103467.05
2019-02-24T00:10:35.120Z,103463.52
2019-02-24T00:13:05.381Z,103467.69
2019-02-24T00:15:35.581Z,103465.23
2019-02-24T00:18:05.758Z,103472.92
2019-02-24T00:20:35.957Z,103467.86
2019-02-24T00:23:07.335Z,103474.31
2019-02-24T00:25:37.479Z,103469.66
2019-02-24T00:28:07.676Z,103466.55
2019-02-24T00:30:37.901Z,103461.95
2019-02-24T00:33:08.042Z,103464.98
2019-02-24T00:35:38.207Z,103457.05
2019-02-24T00:38:08.385Z,103453.09
2019-02-24T00:40:38.537Z,103448.62
2019-02-24T00:43:09.817Z,103443.30
2019-02-24T00:45:39.983Z,103434.22
2019-02-24T00:48:10.233Z,103434.95
2019-02-24T00:50:40.409Z,103429.72
2019-02-24T00:53:12.038Z,103429.72
2019-02-24T00:55:42.289Z,103430.72
2019-02-24T00:58:16.195Z,103427.27
2019-02-24T01:00:44.512Z,103428.18
2019-02-24T01:03:14.757Z,103418.60
2019-02-24T01:05:47.942Z,103423.84
2019-02-24T01:08:21.020Z,103423.98
2019-02-24T01:10:51.195Z,103419.83
2019-02-24T01:13:21.385Z,103420.55
2019-02-24T01:15:51.611Z,103424.48
2019-02-24T01:18:21.893Z,103419.24
2019-02-24T01:20:52.023Z,103418.74
2019-02-24T01:23:22.217Z,103412.84
2019-02-24T01:25:52.350Z,103415.16
2019-02-24T01:28:25.209Z,103420.81
2019-02-24T01:30:54.291Z,103417.61
2019-02-24T01:33:24.509Z,103419.72
2019-02-24T01:35:54.727Z,103412.84
2019-02-24T01:38:24.965Z,103408.25
2019-02-24T01:40:55.211Z,103411.04
2019-02-24T01:43:25.399Z,103398.42
2019-02-24T01:45:55.713Z,103400.88
2019-02-24T01:48:25.873Z,103393.03
2019-02-24T01:50:56.221Z,103390.58
2019-02-24T01:53:26.452Z,103394.67
2019-02-24T01:55:57.457Z,103386.27
2019-02-24T01:58:34.949Z,103386.19
2019-02-24T02:01:00.721Z,103392.09
2019-02-24T02:03:30.859Z,103391.58
2019-02-24T02:06:02.118Z,103391.58
2019-02-24T02:08:33.570Z,103389.47
2019-02-24T02:11:03.781Z,103391.58
2019-02-24T02:13:33.990Z,103387.58
2019-02-24T02:16:04.212Z,103387.16
2019-02-24T02:18:34.382Z,103385.69
2019-02-24T02:21:04.581Z,103383.20
2019-02-24T02:23:34.727Z,103384.12
2019-02-24T02:26:04.851Z,103385.82
2019-02-24T02:28:43.616Z,103383.70
2019-02-24T02:31:06.905Z,103382.63
2019-02-24T02:33:37.074Z,103381.01
2019-02-24T02:36:07.213Z,103375.27
2019-02-24T02:38:37.362Z,103383.34
2019-02-24T02:41:07.481Z,103382.79
2019-02-24T02:43:37.709Z,103382.79
2019-02-24T02:46:07.927Z,103380.90
2019-02-24T02:48:38.109Z,103377.27
2019-02-24T02:51:08.265Z,103372.13
2019-02-24T02:53:38.541Z,103375.47
2019-02-24T02:56:08.730Z,103376.39
2019-02-24T02:58:39.846Z,103382.02
2019-02-24T03:01:09.988Z,103381.47
2019-02-24T03:03:40.421Z,103377.38
2019-02-24T03:06:32.526Z,103382.61
2019-02-24T03:09:03.234Z,103376.58
2019-02-24T03:11:35.092Z,103377.16
2019-02-24T03:14:05.362Z,103372.34
2019-02-24T03:16:35.532Z,103370.17
2019-02-24T03:19:05.752Z,103363.97
2019-02-24T03:21:36.117Z,103360.68
2019-02-24T03:24:06.280Z,103361.02
2019-02-24T03:26:38.544Z,103366.83
2019-02-24T03:29:08.705Z,103363.25
2019-02-24T03:31:39.077Z,103356.38
2019-02-24T03:34:09.267Z,103362.69
2019-02-24T03:36:39.461Z,103356.66
2019-02-24T03:39:09.618Z,103351.76
2019-02-24T03:41:39.810Z,103349.31
2019-02-24T03:44:09.963Z,103352.94
2019-02-24T03:46:40.157Z,103356.22
2019-02-24T03:49:10.371Z,103357.52
2019-02-24T03:51:40.542Z,103354.10
2019-02-24T03:54:10.730Z,103359.13
2019-02-24T03:56:41.074Z,103372.05
2019-02-24T03:59:15.083Z,103386.81
2019-02-24T04:01:44.225Z,103402.81
2019-02-24T04:04:14.546Z,103411.45
2019-02-24T04:06:44.878Z,103412.50
2019-02-24T04:09:14.978Z,103403.43
2019-02-24T04:11:45.216Z,103399.51
2019-02-24T04:14:15.334Z,103409.47
2019-02-24T04:16:45.502Z,103406.52
2019-02-24T04:19:15.657Z,103401.28
2019-02-24T04:21:45.831Z,103395.05
2019-02-24T04:24:16.038Z,103386.73
2019-02-24T04:26:47.105Z,103387.37
2019-02-24T04:29:24.608Z,103382.94
2019-02-24T04:31:49.320Z,103379.48
2019-02-24T04:34:19.505Z,103373.25
2019-02-24T04:36:49.713Z,103374.80
2019-02-24T04:39:19.895Z,103374.72
2019-02-24T04:41:50.059Z,103378.14
2019-02-24T04:44:23.160Z,103375.44
2019-02-24T04:46:53.307Z,103364.55
2019-02-24T04:49:23.547Z,103363.77
2019-02-24T04:51:53.718Z,103367.31
2019-02-24T04:54:23.933Z,103361.91
2019-02-24T04:56:56.087Z,103364.69
2019-02-24T04:59:34.789Z,103375.98
2019-02-24T05:01:58.105Z,103381.00
2019-02-24T05:04:28.370Z,103381.06
2019-02-24T05:06:58.463Z,103389.53
2019-02-24T05:09:28.717Z,103398.38
2019-02-24T05:11:58.995Z,103389.43
2019-02-24T05:14:29.323Z,103409.74
2019-02-24T05:16:59.509Z,103405.68
2019-02-24T05:19:29.729Z,103405.47
2019-02-24T05:21:59.906Z,103393.24
2019-02-24T05:24:30.189Z,103379.55
2019-02-24T05:27:00.431Z,103367.08
2019-02-24T05:29:33.632Z,103365.39
2019-02-24T05:32:03.805Z,103365.56
2019-02-24T05:34:33.939Z,103373.41
2019-02-24T05:37:04.130Z,103377.23
2019-02-24T05:39:34.413Z,103381.28
2019-02-24T05:42:04.609Z,103374.33
2019-02-24T05:44:34.859Z,103381.88
2019-02-24T05:47:05.109Z,103390.92
2019-02-24T05:49:35.407Z,103399.56
2019-02-24T05:52:05.579Z,103402.59
2019-02-24T05:54:36.745Z,103400.72
2019-02-24T05:57:06.905Z,103405.86
2019-02-24T05:59:37.043Z,103404.64
2019-02-24T06:02:07.211Z,103406.84
2019-02-24T06:04:37.351Z,103413.78
2019-02-24T06:07:07.516Z,103422.38
2019-02-24T06:09:37.753Z,103412.79
2019-02-24T06:12:07.946Z,103407.23
2019-02-24T06:14:38.093Z,103407.31
2019-02-24T06:17:10.342Z,103405.20
2019-02-24T06:19:42.913Z,103405.49
2019-02-24T06:22:13.151Z,103402.17
2019-02-24T06:24:43.354Z,103397.04
2019-02-24T06:27:13.486Z,103399.66
2019-02-24T06:29:43.610Z,103404.34
2019-02-24T06:32:17.156Z,103407.38
2019-02-24T06:34:49.970Z,103407.46
2019-02-24T06:37:20.092Z,103415.30
2019-02-24T06:39:50.294Z,103409.56
2019-02-24T06:42:20.700Z,103408.06
2019-02-24T06:44:51.974Z,103403.42
2019-02-24T06:47:22.274Z,103413.55
2019-02-24T06:49:52.502Z,103419.19
2019-02-24T06:52:40.084Z,103419.45
2019-02-24T06:55:18.670Z,103420.47
2019-02-24T06:57:44.166Z,103426.67
2019-02-24T07:00:14.522Z,103431.78
2019-02-24T07:02:47.497Z,103425.24
2019-02-24T07:05:17.662Z,103425.54
2019-02-24T07:07:47.972Z,103421.47
2019-02-24T07:10:20.440Z,103418.05
2019-02-24T07:12:50.589Z,103407.77
2019-02-24T07:15:22.734Z,103404.78
2019-02-24T07:17:58.358Z,103408.41
2019-02-24T07:20:29.539Z,103411.49
2019-02-24T07:22:59.706Z,103408.33
2019-02-24T07:25:29.840Z,103406.05
2019-02-24T07:28:02.441Z,103406.81
2019-02-24T07:30:32.544Z,103409.37
2019-02-24T07:33:04.306Z,103406.33
2019-02-24T07:35:34.439Z,103402.91
2019-02-24T07:38:05.776Z,103398.56
2019-02-24T07:40:35.910Z,103399.64
2019-02-24T07:43:06.051Z,103393.12
2019-02-24T07:45:36.322Z,103387.73
2019-02-24T07:48:08.709Z,103386.74
2019-02-24T07:50:38.867Z,103382.67
2019-02-24T07:53:10.372Z,103386.61
2019-02-24T07:55:40.546Z,103383.91
2019-02-24T07:58:10.801Z,103384.65
2019-02-24T08:00:41.016Z,103384.23
2019-02-24T08:03:11.242Z,103380.38
2019-02-24T08:05:41.391Z,103384.87
2019-02-24T08:08:16.436Z,103379.23
2019-02-24T08:10:44.096Z,103383.61
2019-02-24T08:13:17.414Z,103387.72
2019-02-24T08:15:48.886Z,103385.08
2019-02-24T08:18:19.039Z,103394.62
2019-02-24T08:20:49.255Z,103397.50
2019-02-24T08:23:21.244Z,103407.19
2019-02-24T08:25:51.442Z,103414.64
2019-02-24T08:28:21.593Z,103416.06
2019-02-24T08:30:53.659Z,103418.16
2019-02-24T08:33:23.773Z,103422.98
2019-02-24T08:35:53.987Z,103428.27
2019-02-24T08:38:27.403Z,103422.98
2019-02-24T08:41:01.210Z,103424.70
2019-02-24T08:43:31.327Z,103421.58
2019-02-24T08:46:01.500Z,103420.34
2019-02-24T08:48:31.641Z,103424.44
2019-02-24T08:51:04.606Z,103423.00
2019-02-24T08:53:38.105Z,103428.69
2019-02-24T08:56:08.350Z,103422.31
2019-02-24T08:58:38.550Z,103426.63
2019-02-24T09:01:08.716Z,103419.16
2019-02-24T09:03:38.875Z,103426.28
2019-02-24T09:06:09.001Z,103430.48
2019-02-24T09:08:39.188Z,103434.84
2019-02-24T09:11:10.576Z,103436.91
2019-02-24T09:13:43.214Z,103431.69
2019-02-24T09:16:13.623Z,103427.45
2019-02-24T09:18:44.790Z,103426.31
2019-02-24T09:21:14.979Z,103423.96
2019-02-24T09:23:46.286Z,103421.62
2019-02-24T09:26:16.417Z,103415.88
2019-02-24T09:28:46.653Z,103416.54
2019-02-24T09:31:16.885Z,103414.08
2019-02-24T09:33:47.094Z,103412.38
2019-02-24T09:36:17.195Z,103415.62
2019-02-24T09:38:49.503Z,103418.26
2019-02-24T09:41:26.644Z,103416.37
2019-02-24T09:43:56.809Z,103422.73
2019-02-24T09:46:28.242Z,103414.96
2019-02-24T09:48:58.491Z,103412.71
2019-02-24T09:51:29.464Z,103403.20
2019-02-24T09:53:59.906Z,103397.13
2019-02-24T09:56:32.789Z,103406.55
2019-02-24T09:59:05.300Z,103397.09
2019-02-24T10:01:35.504Z,103401.88
2019-02-24T10:04:05.811Z,103404.42
2019-02-24T10:06:36.026Z,103401.16
2019-02-24T10:09:09.707Z,103392.31
2019-02-24T10:11:45.845Z,103398.27
2019-02-24T10:14:15.962Z,103390.20
2019-02-24T10:16:46.284Z,103394.20
2019-02-24T10:19:16.660Z,103395.89
2019-02-24T10:21:48.902Z,103390.41
2019-02-24T10:24:19.206Z,103398.95
2019-02-24T10:26:49.348Z,103404.98
2019-02-24T10:29:19.571Z,103403.22
2019-02-24T10:31:55.140Z,103405.38
2019-02-24T10:34:25.299Z,103413.80
2019-02-24T10:36:56.477Z,103416.05
2019-02-24T10:39:29.706Z,103415.73
2019-02-24T10:41:59.693Z,103412.87
2019-02-24T10:44:34.730Z,103414.27
2019-02-24T10:47:05.349Z,103412.72
2019-02-24T10:49:35.488Z,103412.38
2019-02-24T10:52:05.610Z,103410.22
2019-02-24T10:54:35.989Z,103415.66
2019-02-24T10:57:09.770Z,103411.26
2019-02-24T10:59:40.195Z,103413.63
2019-02-24T11:02:12.672Z,103418.19
2019-02-24T11:04:45.695Z,103419.55
2019-02-24T11:07:15.884Z,103413.39
2019-02-24T11:09:47.879Z,103414.02
2019-02-24T11:12:23.176Z,103411.75
2019-02-24T11:14:53.328Z,103406.89
2019-02-24T11:17:23.551Z,103408.66
2019-02-24T11:19:53.767Z,103409.66
2019-02-24T11:22:28.826Z,103401.05
2019-02-24T11:25:07.967Z,103405.83
2019-02-24T11:27:38.346Z,103401.42
2019-02-24T11:30:09.228Z,103407.04
2019-02-24T11:32:39.715Z,103409.54
2019-02-24T11:35:12.409Z,103405.72
2019-02-24T11:37:44.720Z,103400.97
2019-02-24T11:40:15.116Z,103399.71
2019-02-24T11:42:47.105Z,103405.48
2019-02-24T11:45:20.337Z,103401.55
2019-02-24T11:47:50.462Z,103399.99
2019-02-24T11:50:20.656Z,103401.11
2019-02-24T11:52:50.820Z,103391.30
2019-02-24T11:55:21.145Z,103390.21
2019-02-24T11:57:51.323Z,103387.80
2019-02-24T12:00:21.445Z,103381.55
2019-02-24T12:02:56.731Z,103381.17
2019-02-24T12:05:28.450Z,103378.21
2019-02-24T12:07:58.630Z,103377.54
2019-02-24T12:10:28.777Z,103377.92
2019-02-24T12:13:02.622Z,103373.95
2019-02-24T12:15:32.786Z,103377.52
2019-02-24T12:18:03.087Z,103380.38
2019-02-24T12:20:35.364Z,103378.73
2019-02-24T12:23:07.918Z,103380.05
2019-02-24T12:25:40.907Z,103384.12
2019-02-24T12:28:11.153Z,103384.59
2019-02-24T12:30:44.088Z,103383.50
2019-02-24T12:33:16.151Z,103387.80
2019-02-24T12:35:46.358Z,103391.42
2019-02-24T12:38:16.499Z,103386.45
2019-02-24T12:40:46.638Z,103381.94
2019-02-24T12:43:16.798Z,103390.42
2019-02-24T12:45:49.909Z,103382.58
2019-02-24T12:48:25.494Z,103394.98
2019-02-24T12:50:55.662Z,103383.63
2019-02-24T12:53:29.181Z,103380.00
2019-02-24T12:55:59.325Z,103375.45
2019-02-24T12:58:29.527Z,103377.18
2019-02-24T13:00:59.848Z,103377.13
2019-02-24T13:03:32.277Z,103384.52
2019-02-24T13:06:02.799Z,103376.08
2019-02-24T13:08:35.201Z,103367.77
2019-02-24T13:11:05.339Z,103363.32
2019-02-24T13:13:35.544Z,103353.73
2019-02-24T13:16:06.535Z,103353.89
2019-02-24T13:18:36.960Z,103352.37
2019-02-24T13:21:07.035Z,103343.11
2019-02-24T13:23:37.264Z,103340.55
2019-02-24T13:26:10.020Z,103330.91
2019-02-24T13:28:50.118Z,103326.71
2019-02-24T13:31:14.872Z,103331.35
2019-02-24T13:33:45.575Z,103326.22
2019-02-24T13:36:15.749Z,103331.55
2019-02-24T13:38:45.974Z,103326.76
2019-02-24T13:41:19.186Z,103325.91
2019-02-24T13:43:49.340Z,103323.08
2019-02-24T13:46:19.499Z,103322.13
2019-02-24T13:48:49.671Z,103321.33
2019-02-24T13:51:19.843Z,103317.30
2019-02-24T13:53:55.594Z,103318.13
2019-02-24T13:56:25.783Z,103316.78
2019-02-24T13:58:57.168Z,103319.82
2019-02-24T14:01:27.229Z,103317.70
2019-02-24T14:03:57.367Z,103316.66
2019-02-24T14:06:29.651Z,103311.58
2019-02-24T14:09:03.036Z,103316.90
2019-02-24T14:11:34.994Z,103312.58
2019-02-24T14:14:05.222Z,103313.72
2019-02-24T14:16:35.395Z,103314.09
2019-02-24T14:19:05.626Z,103321.52
2019-02-24T14:21:38.364Z,103322.59
2019-02-24T14:24:08.522Z,103309.34
2019-02-24T14:26:38.733Z,103302.20
2019-02-24T14:29:08.918Z,103304.44
2019-02-24T14:31:39.073Z,103296.90
2019-02-24T14:34:14.134Z,103299.53
2019-02-24T14:36:44.340Z,103303.05
2019-02-24T14:39:14.783Z,103303.53
2019-02-24T14:41:45.718Z,103293.66
2019-02-24T14:44:19.614Z,103296.65
2019-02-24T14:46:50.244Z,103300.09
2019-02-24T14:49:20.524Z,103304.94
2019-02-24T14:51:51.836Z,103304.35
2019-02-24T14:54:22.196Z,103306.93
2019-02-24T14:56:52.444Z,103303.81
2019-02-24T14:59:22.764Z,103297.91
2019-02-24T15:01:53.073Z,103304.42
2019-02-24T15:04:23.321Z,103306.56
2019-02-24T15:06:56.486Z,103309.66
2019-02-24T15:09:27.071Z,103308.87
2019-02-24T15:11:58.356Z,103309.86
2019-02-24T15:14:28.452Z,103309.02
2019-02-24T15:16:58.826Z,103311.62
2019-02-24T15:19:29.425Z,103311.91
2019-02-24T15:21:59.809Z,103305.31
2019-02-24T15:24:30.238Z,103304.56
2019-02-24T15:27:02.373Z,103308.29
2019-02-24T15:29:36.057Z,103322.69
2019-02-24T15:32:06.410Z,103318.11
2019-02-24T15:34:37.857Z,103314.44
2019-02-24T15:37:09.815Z,103318.39
2019-02-24T15:39:43.245Z,103321.40
2019-02-24T15:42:13.465Z,103316.87
2019-02-24T15:44:47.065Z,103321.19
2019-02-24T15:47:17.321Z,103316.67
2019-02-24T15:49:47.586Z,103321.86
2019-02-24T15:52:17.842Z,103324.84
2019-02-24T15:54:48.098Z,103319.47
2019-02-24T15:57:18.278Z,103316.28
2019-02-24T15:59:48.912Z,103318.39
2019-02-24T16:02:19.756Z,103317.39
2019-02-24T16:04:50.259Z,103319.03
2019-02-24T16:07:20.789Z,103329.60
2019-02-24T16:09:51.216Z,103336.16
2019-02-24T16:12:21.459Z,103343.16
2019-02-24T16:14:51.695Z,103339.56
2019-02-24T16:17:22.152Z,103342.14
2019-02-24T16:19:53.390Z,103346.05
2019-02-24T16:22:25.391Z,103346.88
2019-02-24T16:24:56.607Z,103346.92
2019-02-24T16:27:28.521Z,103344.53
2019-02-24T16:29:59.115Z,103354.09
2019-02-24T16:32:31.886Z,103349.26
2019-02-24T16:35:04.792Z,103347.93
2019-02-24T16:37:35.073Z,103347.64
2019-02-24T16:40:09.005Z,103350.09
2019-02-24T16:42:47.398Z,103352.48
2019-02-24T16:45:19.098Z,103343.78
2019-02-24T16:47:49.424Z,103350.98
2019-02-24T16:50:24.433Z,103351.66
2019-02-24T16:52:58.930Z,103355.81
2019-02-24T16:55:29.536Z,103341.39
2019-02-24T16:58:07.855Z,103340.20
2019-02-24T17:00:39.895Z,103343.98
2019-02-24T17:03:19.703Z,103339.77
2019-02-24T17:05:44.630Z,103349.27
2019-02-24T17:08:19.722Z,103356.95
2019-02-24T17:10:52.195Z,103351.44
2019-02-24T17:13:22.646Z,103352.95
2019-02-24T17:15:53.220Z,103345.27
2019-02-24T17:18:23.666Z,103346.37
2019-02-24T17:20:54.013Z,103353.19
2019-02-24T17:23:25.742Z,103356.48
2019-02-24T17:25:56.220Z,103355.41
2019-02-24T17:28:30.289Z,103361.39
2019-02-24T17:31:02.005Z,103359.91
2019-02-24T17:33:33.600Z,103360.59
2019-02-24T17:36:07.672Z,103357.34
2019-02-24T17:38:38.104Z,103353.57
2019-02-24T17:41:08.554Z,103360.41
2019-02-24T17:43:38.714Z,103366.90
2019-02-24T17:46:11.291Z,103362.77
2019-02-24T17:48:41.609Z,103371.87
2019-02-24T17:51:20.866Z,103379.23
2019-02-24T17:53:46.743Z,103379.94
2019-02-24T17:56:20.052Z,103372.24
2019-02-24T17:58:51.581Z,103374.27
2019-02-24T18:01:23.154Z,103367.02
2019-02-24T18:03:54.637Z,103370.48
2019-02-24T18:06:27.638Z,103371.59
2019-02-24T18:08:58.222Z,103376.20
2019-02-24T18:11:28.686Z,103379.54
2019-02-24T18:13:59.139Z,103379.36
2019-02-24T18:16:29.449Z,103377.47
2019-02-24T18:18:59.868Z,103376.44
2019-02-24T18:21:30.209Z,103368.30
2019-02-24T18:24:01.291Z,103365.91
2019-02-24T18:26:31.775Z,103361.81
2019-02-24T18:29:02.173Z,103357.76
2019-02-24T18:32:08.260Z,103358.16
2019-02-24T18:34:40.986Z,103361.92
2019-02-24T18:37:11.385Z,103356.90
2019-02-24T18:39:41.602Z,103354.47
2019-02-24T18:42:13.471Z,103354.41
2019-02-24T18:44:43.585Z,103353.88
2019-02-24T18:47:14.950Z,103350.27
2019-02-24T18:49:45.112Z,103348.76
2019-02-24T18:52:15.361Z,103357.40
2019-02-24T18:55:20.334Z,103359.45
2019-02-24T18:57:52.255Z,103358.91
2019-02-24T19:00:27.020Z,103367.59
2019-02-24T19:02:57.431Z,103373.10
2019-02-24T19:05:27.623Z,103375.64
2019-02-24T19:07:57.935Z,103367.59
2019-02-24T19:10:33.635Z,103376.22
2019-02-24T19:13:04.381Z,103375.77
2019-02-24T19:15:34.490Z,103380.50
2019-02-24T19:18:04.781Z,103376.89
2019-02-24T19:20:36.101Z,103377.67
2019-02-24T19:23:06.615Z,103382.84
2019-02-24T19:25:37.331Z,103383.61
2019-02-24T19:28:07.508Z,103375.55
2019-02-24T19:30:37.981Z,103388.14
2019-02-24T19:33:08.421Z,103383.09
2019-02-24T19:35:38.562Z,103371.48
2019-02-24T19:38:08.917Z,103377.16
2019-02-24T19:40:43.819Z,103387.64
2019-02-24T19:43:16.840Z,103384.46
2019-02-24T19:45:47.148Z,103382.98
2019-02-24T19:48:17.438Z,103384.64
2019-02-24T19:50:47.733Z,103382.39
2019-02-24T19:53:26.872Z,103379.20
2019-02-24T19:56:03.762Z,103382.13
2019-02-24T20:06:33.391Z,103377.66
2019-02-24T20:09:03.873Z,103373.00
2019-02-24T20:11:42.546Z,103369.88
2019-02-24T20:14:13.098Z,103372.45
2019-02-24T20:16:46.340Z,103369.77
2019-02-24T20:19:21.687Z,103367.56
2019-02-24T20:21:59.019Z,103369.70
2019-02-24T20:24:34.384Z,103369.28
2019-02-24T20:27:07.357Z,103370.08
2019-02-24T20:29:39.477Z,103378.81
2019-02-24T20:32:09.813Z,103382.09
2019-02-24T20:34:43.013Z,103384.58
2019-02-24T20:37:13.316Z,103390.05
2019-02-24T20:39:43.542Z,103406.23
2019-02-24T20:42:17.345Z,103410.98
2019-02-24T20:44:49.068Z,103413.95
2019-02-24T20:47:19.448Z,103414.71
2019-02-24T20:49:49.701Z,103419.27
2019-02-24T20:52:19.902Z,103421.47
2019-02-24T20:54:50.159Z,103414.44
2019-02-24T20:57:20.408Z,103418.78
2019-02-24T20:59:50.923Z,103422.23
2019-02-24T21:02:21.228Z,103422.61
2019-02-24T21:04:51.418Z,103429.95
2019-02-24T21:07:21.625Z,103422.00
2019-02-24T21:09:53.925Z,103410.80
2019-02-24T21:12:24.279Z,103416.34
2019-02-24T21:14:54.651Z,103417.17
2019-02-24T21:17:26.117Z,103422.92
2019-02-24T21:19:58.797Z,103429.38
2019-02-24T21:22:29.391Z,103430.20
2019-02-24T21:25:00.006Z,103428.88
2019-02-24T21:27:30.529Z,103426.20
2019-02-24T21:30:03.909Z,103428.27
2019-02-24T21:32:35.725Z,103428.02
2019-02-24T21:35:06.845Z,103428.42
2019-02-24T21:37:37.488Z,103422.27
2019-02-24T21:40:08.058Z,103427.91
2019-02-24T21:42:38.818Z,103431.69
2019-02-24T21:45:12.103Z,103436.84
2019-02-24T21:47:42.943Z,103445.50
2019-02-24T21:50:14.356Z,103442.73
2019-02-24T21:52:44.891Z,103443.14
2019-02-24T21:55:15.001Z,103438.50
2019-02-24T21:57:46.058Z,103444.54
2019-02-24T22:00:18.892Z,103449.64
2019-02-24T22:02:49.219Z,103454.08
2019-02-24T22:05:21.680Z,103453.72
2019-02-24T22:07:55.684Z,103456.98
2019-02-24T22:10:29.751Z,103453.92
2019-02-24T22:12:59.593Z,103446.66
2019-02-24T22:15:31.459Z,103448.83
2019-02-24T22:18:02.459Z,103444.62
2019-02-24T22:20:32.583Z,103453.33
2019-02-24T22:23:05.083Z,103456.91
2019-02-24T22:25:35.201Z,103461.22
2019-02-24T22:28:06.538Z,103462.86
2019-02-24T22:30:36.751Z,103464.11
2019-02-24T22:33:06.954Z,103456.52
2019-02-24T22:35:38.353Z,103451.79
2019-02-24T22:38:10.353Z,103445.64
2019-02-24T22:40:40.568Z,103446.27
2019-02-24T22:43:10.812Z,103443.97
2019-02-24T22:45:40.992Z,103434.77
2019-02-24T22:48:11.144Z,103434.70
2019-02-24T22:50:41.301Z,103440.88
2019-02-24T22:53:11.443Z,103442.20
2019-02-24T22:55:42.382Z,103437.69
2019-02-24T22:58:12.630Z,103445.09
2019-02-24T23:00:57.435Z,103440.95
2019-02-24T23:03:31.670Z,103432.07
2019-02-24T23:06:01.824Z,103427.56
2019-02-24T23:08:33.340Z,103436.90
2019-02-24T23:11:05.487Z,103427.99
2019-02-24T23:13:36.434Z,103431.38
2019-02-24T23:16:06.798Z,103432.75
2019-02-24T23:18:37.346Z,103425.76
2019-02-24T23:21:07.492Z,103423.56
2019-02-24T23:23:37.764Z,103418.56
2019-02-24T23:26:07.986Z,103422.18
2019-02-24T23:28:38.208Z,103423.98
2019-02-24T23:31:08.338Z,103423.82
2019-02-24T23:33:38.496Z,103426.55
2019-02-24T23:36:08.758Z,103415.41
2019-02-24T23:38:38.920Z,103414.68
2019-02-24T23:41:09.298Z,103410.74
2019-02-24T23:43:39.387Z,103409.48
2019-02-24T23:46:09.530Z,103402.78
2019-02-24T23:48:42.010Z,103401.89
2019-02-24T23:51:12.186Z,103401.96
2019-02-24T23:53:43.378Z,103403.77
2019-02-24T23:56:13.662Z,103401.83
2019-02-24T23:58:43.812Z,103396.27
